Colton, WA

7:56 PM PST on November 22, 2014 (GMT -0800)
Lewiston-Nez Perce County | Change Station
CLOSE
Current Station
Airport
Location: Lewiston,
Elevation: 1437 ft
Nearby Weather Stations

Elev 1437 ft 46.37 °N, 117.02 °W | Updated 1 hour ago

Overcast
Overcast
44 °F
Feels Like 39 °F
N
9
Wind Variable Wind from WSW
Gusts 17 mph

Today
High -- | Low -- °F
--% Chance of Precip.
Yesterday
High -- | Low -- °F
Precip. -- in
7:00 AM 4:08 PM
New Moon, 0% visible
Pressure 29.91 in
Visibility 10.0 miles
Clouds Scattered Clouds 3300 ft
Scattered Clouds 4600 ft
Mostly Cloudy 12000 ft
Windchill 39 °F
Dew Point 36 °F
Humidity 73%
Rainfall 0.07 in
Snow Depth Not available.
UV 0 out of 12
Pollen .10 out of 12
Air Quality Not available.
Flu Activity Not available.
METAR KLWS 230256Z 25008G15KT 10SM SCT033 SCT046 BKN120 07/02 A2990 RMK AO2 RAE19 SLP129 P0000 60002 T00670022 53033

More Conditions Fewer Conditions

Pressure 29.91 in
Visibility 10.0 miles
Clouds Scattered Clouds 3300 ft
Scattered Clouds 4600 ft
Mostly Cloudy 12000 ft
Windchill 39 °F
Dew Point 36 °F
Humidity 73%
Rainfall 0.07 in
Snow Depth Not available.
UV 0 out of 12
Pollen .10 out of 12
Air Quality Not available.
Flu Activity Not available.
METAR KLWS 230256Z 25008G15KT 10SM SCT033 SCT046 BKN120 07/02 A2990 RMK AO2 RAE19 SLP129 P0000 60002 T00670022 53033

More Conditions Fewer Conditions

10-Day Weather Forecast

Almanac

Astronomy

Nov. 22, 2014 Rise Set
Actual Time
Civil Twilight
Nautical Twilight
Astronomical Twilight
Moon
Length of Visible Light
Length of Day
Tomorrow will be .
, % of the Moon is Illuminated

Today's Extremes

State Highs State Lows

Community

WunderPhotos

Upload Photos

1,772,990 photos uploaded!

WunderBlogs® & News

Nearby

Air Quality

  Air Quality AQ Index Pollutant
Not available.

Snow Depth

Station Depth Elevation

Earthquake Activity

City Distance Mag. Time & Date
Minimum magnitude displayed is 2.5.

Coastal Water Temperatures

Place Temperature

Nearby Weather Stations